sensor_id;sensor_type;location;lat;lon;timestamp;pressure;altitude;pressure_sealevel;temperature;humidity
72336;BME280;65062;48.446;8.834;2023-04-07T00:01:49;97507.03;;;5.20;87.05
72336;BME280;65062;48.446;8.834;2023-04-07T00:04:50;97506.09;;;5.03;87.38
72336;BME280;65062;48.446;8.834;2023-04-07T00:07:50;97512.03;;;4.96;88.66
72336;BME280;65062;48.446;8.834;2023-04-07T00:10:50;97507.91;;;4.85;88.83
72336;BME280;65062;48.446;8.834;2023-04-07T00:13:51;97505.94;;;5.05;88.08
72336;BME280;65062;48.446;8.834;2023-04-07T00:16:51;97497.00;;;4.99;88.16
72336;BME280;65062;48.446;8.834;2023-04-07T00:19:51;97498.78;;;4.81;88.04
72336;BME280;65062;48.446;8.834;2023-04-07T00:22:52;97490.56;;;4.68;87.22
72336;BME280;65062;48.446;8.834;2023-04-07T00:25:52;97480.78;;;4.62;88.55
72336;BME280;65062;48.446;8.834;2023-04-07T00:28:52;97477.31;;;4.54;88.48
72336;BME280;65062;48.446;8.834;2023-04-07T00:31:53;97485.53;;;4.49;89.18
72336;BME280;65062;48.446;8.834;2023-04-07T00:34:53;97482.34;;;4.55;89.21
72336;BME280;65062;48.446;8.834;2023-04-07T00:37:53;97475.75;;;4.61;89.58
72336;BME280;65062;48.446;8.834;2023-04-07T00:40:58;97471.84;;;4.57;89.92
72336;BME280;65062;48.446;8.834;2023-04-07T00:43:58;97470.50;;;4.70;89.63
72336;BME280;65062;48.446;8.834;2023-04-07T00:46:59;97463.00;;;4.85;88.50
72336;BME280;65062;48.446;8.834;2023-04-07T00:49:59;97466.88;;;4.81;88.33
72336;BME280;65062;48.446;8.834;2023-04-07T00:53:00;97457.09;;;4.75;88.56
72336;BME280;65062;48.446;8.834;2023-04-07T00:56:01;97454.72;;;4.64;87.74
72336;BME280;65062;48.446;8.834;2023-04-07T00:59:04;97450.72;;;4.52;89.02
72336;BME280;65062;48.446;8.834;2023-04-07T01:02:41;97452.81;;;4.48;89.10
72336;BME280;65062;48.446;8.834;2023-04-07T01:05:53;97443.72;;;4.44;88.69
72336;BME280;65062;48.446;8.834;2023-04-07T01:09:08;97446.22;;;4.36;88.00
72336;BME280;65062;48.446;8.834;2023-04-07T01:15:29;97440.03;;;4.29;90.00
72336;BME280;65062;48.446;8.834;2023-04-07T01:18:31;97438.16;;;4.39;90.56
72336;BME280;65062;48.446;8.834;2023-04-07T01:21:34;97440.16;;;4.45;89.86
72336;BME280;65062;48.446;8.834;2023-04-07T01:31:36;97425.53;;;4.79;88.50
72336;BME280;65062;48.446;8.834;2023-04-07T01:34:39;97424.66;;;4.71;88.48
72336;BME280;65062;48.446;8.834;2023-04-07T01:37:41;97412.28;;;4.82;89.04
72336;BME280;65062;48.446;8.834;2023-04-07T01:40:43;97413.28;;;4.89;89.12
72336;BME280;65062;48.446;8.834;2023-04-07T01:43:45;97411.34;;;4.91;88.87
72336;BME280;65062;48.446;8.834;2023-04-07T01:46:48;97404.91;;;4.95;88.78
72336;BME280;65062;48.446;8.834;2023-04-07T01:49:50;97397.97;;;5.04;87.87
72336;BME280;65062;48.446;8.834;2023-04-07T01:52:52;97399.44;;;5.06;88.33
72336;BME280;65062;48.446;8.834;2023-04-07T01:55:53;97394.72;;;5.02;88.25
72336;BME280;65062;48.446;8.834;2023-04-07T01:58:53;97398.38;;;4.91;88.55
72336;BME280;65062;48.446;8.834;2023-04-07T02:01:54;97391.88;;;4.87;88.56
72336;BME280;65062;48.446;8.834;2023-04-07T02:04:56;97388.38;;;4.96;89.13
72336;BME280;65062;48.446;8.834;2023-04-07T02:08:02;97392.13;;;5.02;88.44
72336;BME280;65062;48.446;8.834;2023-04-07T02:11:04;97380.44;;;4.98;87.34
72336;BME280;65062;48.446;8.834;2023-04-07T02:14:07;97382.38;;;4.96;88.01
72336;BME280;65062;48.446;8.834;2023-04-07T02:17:09;97375.78;;;5.01;88.27
72336;BME280;65062;48.446;8.834;2023-04-07T02:20:11;97380.50;;;5.06;87.90
72336;BME280;65062;48.446;8.834;2023-04-07T02:23:13;97372.81;;;4.96;88.15
72336;BME280;65062;48.446;8.834;2023-04-07T02:26:13;97374.88;;;4.93;88.15
72336;BME280;65062;48.446;8.834;2023-04-07T02:29:14;97374.25;;;4.91;89.26
72336;BME280;65062;48.446;8.834;2023-04-07T02:32:14;97371.97;;;4.88;88.86
72336;BME280;65062;48.446;8.834;2023-04-07T02:35:17;97377.59;;;4.83;88.41
72336;BME280;65062;48.446;8.834;2023-04-07T02:38:17;97374.28;;;4.99;88.00
72336;BME280;65062;48.446;8.834;2023-04-07T02:41:18;97371.03;;;4.97;87.66
72336;BME280;65062;48.446;8.834;2023-04-07T02:44:18;97365.81;;;4.89;87.79
72336;BME280;65062;48.446;8.834;2023-04-07T02:47:18;97367.16;;;4.75;88.66
72336;BME280;65062;48.446;8.834;2023-04-07T02:50:19;97365.47;;;4.84;88.46
72336;BME280;65062;48.446;8.834;2023-04-07T02:53:19;97359.09;;;4.78;89.67
72336;BME280;65062;48.446;8.834;2023-04-07T02:56:20;97356.50;;;4.78;89.23
72336;BME280;65062;48.446;8.834;2023-04-07T02:59:21;97350.75;;;4.92;88.61
72336;BME280;65062;48.446;8.834;2023-04-07T03:02:21;97351.22;;;4.88;88.59
72336;BME280;65062;48.446;8.834;2023-04-07T03:05:22;97353.13;;;4.86;88.55
72336;BME280;65062;48.446;8.834;2023-04-07T03:08:22;97350.06;;;4.82;88.87
72336;BME280;65062;48.446;8.834;2023-04-07T03:11:22;97347.09;;;4.77;88.99
72336;BME280;65062;48.446;8.834;2023-04-07T03:14:23;97340.63;;;4.81;88.87
72336;BME280;65062;48.446;8.834;2023-04-07T03:17:23;97335.28;;;4.75;89.74
72336;BME280;65062;48.446;8.834;2023-04-07T03:20:23;97338.16;;;4.72;88.84
72336;BME280;65062;48.446;8.834;2023-04-07T03:23:24;97330.25;;;4.73;89.09
72336;BME280;65062;48.446;8.834;2023-04-07T03:26:24;97328.81;;;4.79;89.81
72336;BME280;65062;48.446;8.834;2023-04-07T03:29:25;97331.47;;;4.69;88.67
72336;BME280;65062;48.446;8.834;2023-04-07T03:32:25;97326.38;;;4.77;89.11
72336;BME280;65062;48.446;8.834;2023-04-07T03:35:26;97331.84;;;4.74;89.03
72336;BME280;65062;48.446;8.834;2023-04-07T03:38:26;97320.88;;;4.80;89.45
72336;BME280;65062;48.446;8.834;2023-04-07T03:41:26;97324.13;;;4.82;88.79
72336;BME280;65062;48.446;8.834;2023-04-07T03:44:27;97320.03;;;4.72;89.07
72336;BME280;65062;48.446;8.834;2023-04-07T03:47:27;97307.84;;;4.72;88.71
72336;BME280;65062;48.446;8.834;2023-04-07T03:50:27;97308.81;;;4.71;88.93
72336;BME280;65062;48.446;8.834;2023-04-07T03:53:28;97305.69;;;4.85;88.40
72336;BME280;65062;48.446;8.834;2023-04-07T03:56:28;97303.31;;;4.66;89.20
72336;BME280;65062;48.446;8.834;2023-04-07T03:59:29;97297.69;;;4.53;89.29
72336;BME280;65062;48.446;8.834;2023-04-07T04:02:29;97300.66;;;4.58;89.83
72336;BME280;65062;48.446;8.834;2023-04-07T04:05:29;97299.97;;;4.56;89.45
72336;BME280;65062;48.446;8.834;2023-04-07T04:08:30;97294.31;;;4.53;90.07
72336;BME280;65062;48.446;8.834;2023-04-07T04:11:30;97296.22;;;4.51;90.49
72336;BME280;65062;48.446;8.834;2023-04-07T04:14:30;97304.31;;;4.48;90.23
72336;BME280;65062;48.446;8.834;2023-04-07T04:17:31;97300.44;;;4.52;90.14
72336;BME280;65062;48.446;8.834;2023-04-07T04:20:31;97306.19;;;4.63;89.97
72336;BME280;65062;48.446;8.834;2023-04-07T04:23:31;97300.38;;;4.69;89.28
72336;BME280;65062;48.446;8.834;2023-04-07T04:26:32;97301.97;;;4.62;89.43
72336;BME280;65062;48.446;8.834;2023-04-07T04:29:32;97299.88;;;4.40;89.33
72336;BME280;65062;48.446;8.834;2023-04-07T04:32:33;97299.63;;;4.25;90.02
72336;BME280;65062;48.446;8.834;2023-04-07T04:35:33;97296.91;;;4.09;90.07
72336;BME280;65062;48.446;8.834;2023-04-07T04:38:34;97307.44;;;3.90;90.81
72336;BME280;65062;48.446;8.834;2023-04-07T04:41:34;97308.47;;;3.80;91.25
72336;BME280;65062;48.446;8.834;2023-04-07T04:44:34;97322.72;;;3.84;91.75
72336;BME280;65062;48.446;8.834;2023-04-07T04:47:35;97315.94;;;3.83;91.85
72336;BME280;65062;48.446;8.834;2023-04-07T04:50:38;97313.44;;;3.91;91.66
72336;BME280;65062;48.446;8.834;2023-04-07T04:53:38;97314.66;;;3.87;90.71
72336;BME280;65062;48.446;8.834;2023-04-07T04:56:38;97312.75;;;3.71;91.15
72336;BME280;65062;48.446;8.834;2023-04-07T04:59:40;97316.31;;;3.70;91.98
72336;BME280;65062;48.446;8.834;2023-04-07T05:02:41;97313.63;;;3.80;91.55
72336;BME280;65062;48.446;8.834;2023-04-07T05:05:42;97311.00;;;3.72;92.33
72336;BME280;65062;48.446;8.834;2023-04-07T05:08:43;97312.59;;;3.73;91.88
72336;BME280;65062;48.446;8.834;2023-04-07T05:11:43;97308.91;;;3.75;92.82
72336;BME280;65062;48.446;8.834;2023-04-07T05:14:43;97306.59;;;3.72;92.77
72336;BME280;65062;48.446;8.834;2023-04-07T05:17:44;97311.19;;;3.96;91.63
72336;BME280;65062;48.446;8.834;2023-04-07T05:20:49;97314.38;;;3.90;92.09
72336;BME280;65062;48.446;8.834;2023-04-07T05:23:49;97305.22;;;3.95;91.69
72336;BME280;65062;48.446;8.834;2023-04-07T05:26:50;97303.84;;;4.09;91.25
72336;BME280;65062;48.446;8.834;2023-04-07T05:29:50;97311.69;;;4.17;90.94
72336;BME280;65062;48.446;8.834;2023-04-07T05:32:51;97311.59;;;4.26;91.28
72336;BME280;65062;48.446;8.834;2023-04-07T05:35:52;97318.63;;;4.34;90.85
72336;BME280;65062;48.446;8.834;2023-04-07T05:38:52;97314.78;;;4.38;91.04
72336;BME280;65062;48.446;8.834;2023-04-07T05:41:53;97308.31;;;4.42;89.84
72336;BME280;65062;48.446;8.834;2023-04-07T05:44:54;97315.97;;;4.52;89.91
72336;BME280;65062;48.446;8.834;2023-04-07T05:47:54;97309.09;;;4.60;89.61
72336;BME280;65062;48.446;8.834;2023-04-07T05:50:55;97315.00;;;4.70;88.96
72336;BME280;65062;48.446;8.834;2023-04-07T05:53:57;97308.56;;;4.82;88.01
72336;BME280;65062;48.446;8.834;2023-04-07T05:56:58;97303.94;;;4.94;87.97
72336;BME280;65062;48.446;8.834;2023-04-07T05:59:58;97312.47;;;5.20;87.07
72336;BME280;65062;48.446;8.834;2023-04-07T06:02:59;97318.34;;;5.30;86.38
72336;BME280;65062;48.446;8.834;2023-04-07T06:06:00;97323.78;;;5.52;86.39
72336;BME280;65062;48.446;8.834;2023-04-07T06:09:01;97322.16;;;5.51;85.58
72336;BME280;65062;48.446;8.834;2023-04-07T06:12:01;97314.72;;;5.64;86.25
72336;BME280;65062;48.446;8.834;2023-04-07T06:15:04;97312.78;;;5.74;84.98
72336;BME280;65062;48.446;8.834;2023-04-07T06:18:05;97311.88;;;5.83;84.65
72336;BME280;65062;48.446;8.834;2023-04-07T06:21:05;97315.41;;;5.82;84.77
72336;BME280;65062;48.446;8.834;2023-04-07T06:24:06;97305.34;;;5.79;84.23
72336;BME280;65062;48.446;8.834;2023-04-07T06:27:07;97300.69;;;5.91;83.72
72336;BME280;65062;48.446;8.834;2023-04-07T06:30:08;97310.44;;;5.97;83.55
72336;BME280;65062;48.446;8.834;2023-04-07T06:33:08;97313.50;;;5.92;83.77
72336;BME280;65062;48.446;8.834;2023-04-07T06:36:10;97317.41;;;5.96;84.38
72336;BME280;65062;48.446;8.834;2023-04-07T06:39:10;97313.50;;;5.92;84.21
72336;BME280;65062;48.446;8.834;2023-04-07T06:42:10;97305.41;;;5.95;83.92
72336;BME280;65062;48.446;8.834;2023-04-07T06:45:11;97320.34;;;6.01;84.10
72336;BME280;65062;48.446;8.834;2023-04-07T06:48:11;97311.72;;;6.09;84.14
72336;BME280;65062;48.446;8.834;2023-04-07T06:51:12;97313.81;;;6.13;83.42
72336;BME280;65062;48.446;8.834;2023-04-07T06:54:12;97318.06;;;6.22;83.33
72336;BME280;65062;48.446;8.834;2023-04-07T06:57:13;97313.81;;;6.29;83.04
72336;BME280;65062;48.446;8.834;2023-04-07T07:00:14;97315.44;;;6.47;83.58
72336;BME280;65062;48.446;8.834;2023-04-07T07:03:14;97311.69;;;6.73;82.63
72336;BME280;65062;48.446;8.834;2023-04-07T07:06:15;97308.25;;;6.81;81.59
72336;BME280;65062;48.446;8.834;2023-04-07T07:09:16;97306.53;;;7.04;81.86
72336;BME280;65062;48.446;8.834;2023-04-07T07:12:16;97311.34;;;7.31;81.01
72336;BME280;65062;48.446;8.834;2023-04-07T07:15:17;97306.72;;;7.41;78.14
72336;BME280;65062;48.446;8.834;2023-04-07T07:18:18;97302.06;;;7.59;76.00
72336;BME280;65062;48.446;8.834;2023-04-07T07:21:18;97303.94;;;7.73;77.86
72336;BME280;65062;48.446;8.834;2023-04-07T07:24:18;97312.91;;;7.93;73.97
72336;BME280;65062;48.446;8.834;2023-04-07T07:27:19;97310.63;;;8.20;71.42
72336;BME280;65062;48.446;8.834;2023-04-07T07:30:20;97308.81;;;8.43;70.41
72336;BME280;65062;48.446;8.834;2023-04-07T07:33:21;97303.22;;;8.84;72.10
72336;BME280;65062;48.446;8.834;2023-04-07T07:36:24;97309.06;;;9.00;70.50
72336;BME280;65062;48.446;8.834;2023-04-07T07:39:25;97305.38;;;9.24;68.75
72336;BME280;65062;48.446;8.834;2023-04-07T07:42:26;97313.00;;;9.40;68.06
72336;BME280;65062;48.446;8.834;2023-04-07T07:45:26;97307.97;;;9.38;68.02
72336;BME280;65062;48.446;8.834;2023-04-07T07:48:27;97315.63;;;9.40;69.96
72336;BME280;65062;48.446;8.834;2023-04-07T07:51:27;97306.41;;;9.58;69.32
72336;BME280;65062;48.446;8.834;2023-04-07T07:54:28;97315.22;;;9.72;69.60
72336;BME280;65062;48.446;8.834;2023-04-07T07:57:28;97308.75;;;9.89;67.69
72336;BME280;65062;48.446;8.834;2023-04-07T08:00:30;97308.94;;;9.87;67.88
72336;BME280;65062;48.446;8.834;2023-04-07T08:03:30;97306.97;;;9.89;69.18
72336;BME280;65062;48.446;8.834;2023-04-07T08:06:31;97307.28;;;10.01;67.97
72336;BME280;65062;48.446;8.834;2023-04-07T08:09:31;97298.28;;;10.24;66.75
72336;BME280;65062;48.446;8.834;2023-04-07T08:12:32;97300.25;;;10.43;66.13
72336;BME280;65062;48.446;8.834;2023-04-07T08:15:32;97300.06;;;10.73;64.46
72336;BME280;65062;48.446;8.834;2023-04-07T08:18:32;97302.38;;;10.82;63.22
72336;BME280;65062;48.446;8.834;2023-04-07T08:21:33;97301.25;;;10.98;61.01
72336;BME280;65062;48.446;8.834;2023-04-07T08:24:33;97299.09;;;11.08;61.02
72336;BME280;65062;48.446;8.834;2023-04-07T08:27:33;97302.97;;;11.18;61.54
72336;BME280;65062;48.446;8.834;2023-04-07T08:30:34;97305.69;;;11.38;59.40
72336;BME280;65062;48.446;8.834;2023-04-07T08:33:34;97301.69;;;11.42;58.99
72336;BME280;65062;48.446;8.834;2023-04-07T08:36:35;97298.88;;;11.43;58.06
72336;BME280;65062;48.446;8.834;2023-04-07T08:39:35;97299.53;;;11.58;60.04
72336;BME280;65062;48.446;8.834;2023-04-07T08:42:40;97292.78;;;11.90;59.98
72336;BME280;65062;48.446;8.834;2023-04-07T08:45:41;97306.38;;;12.13;57.23
72336;BME280;65062;48.446;8.834;2023-04-07T08:48:43;97303.75;;;12.19;56.79
72336;BME280;65062;48.446;8.834;2023-04-07T08:51:45;97301.16;;;12.26;57.81
72336;BME280;65062;48.446;8.834;2023-04-07T08:54:46;97299.94;;;12.35;56.54
72336;BME280;65062;48.446;8.834;2023-04-07T08:57:47;97305.59;;;12.32;57.63
72336;BME280;65062;48.446;8.834;2023-04-07T09:00:48;97303.38;;;12.16;56.24
72336;BME280;65062;48.446;8.834;2023-04-07T09:03:50;97301.53;;;12.10;56.76
72336;BME280;65062;48.446;8.834;2023-04-07T09:06:50;97298.84;;;11.90;55.95
72336;BME280;65062;48.446;8.834;2023-04-07T09:09:51;97298.44;;;11.87;56.12
72336;BME280;65062;48.446;8.834;2023-04-07T09:12:51;97303.56;;;12.27;57.52
72336;BME280;65062;48.446;8.834;2023-04-07T09:15:52;97306.19;;;12.21;54.50
72336;BME280;65062;48.446;8.834;2023-04-07T09:18:52;97293.28;;;12.26;55.22
72336;BME280;65062;48.446;8.834;2023-04-07T09:21:52;97298.34;;;12.47;54.94
72336;BME280;65062;48.446;8.834;2023-04-07T09:24:53;97296.72;;;12.85;54.12
72336;BME280;65062;48.446;8.834;2023-04-07T09:28:03;97301.75;;;12.87;52.14
72336;BME280;65062;48.446;8.834;2023-04-07T09:31:04;97306.53;;;13.29;52.51
72336;BME280;65062;48.446;8.834;2023-04-07T09:34:23;97305.00;;;13.65;53.02
72336;BME280;65062;48.446;8.834;2023-04-07T09:37:23;97295.81;;;14.25;51.60
72336;BME280;65062;48.446;8.834;2023-04-07T09:40:27;97299.63;;;14.53;50.14
72336;BME280;65062;48.446;8.834;2023-04-07T09:43:27;97298.66;;;14.73;49.95
72336;BME280;65062;48.446;8.834;2023-04-07T09:46:28;97306.34;;;15.17;49.54
72336;BME280;65062;48.446;8.834;2023-04-07T09:49:28;97302.34;;;15.86;47.72
72336;BME280;65062;48.446;8.834;2023-04-07T09:52:49;97298.75;;;15.81;43.54
72336;BME280;65062;48.446;8.834;2023-04-07T09:55:53;97298.09;;;15.31;43.22
72336;BME280;65062;48.446;8.834;2023-04-07T09:58:54;97290.50;;;14.81;44.47
72336;BME280;65062;48.446;8.834;2023-04-07T10:01:56;97288.13;;;15.33;45.40
72336;BME280;65062;48.446;8.834;2023-04-07T10:04:58;97299.91;;;15.13;46.05
72336;BME280;65062;48.446;8.834;2023-04-07T10:07:59;97293.78;;;15.19;48.33
72336;BME280;65062;48.446;8.834;2023-04-07T10:11:00;97299.63;;;15.03;48.59
72336;BME280;65062;48.446;8.834;2023-04-07T10:14:02;97300.44;;;14.54;51.79
72336;BME280;65062;48.446;8.834;2023-04-07T10:17:03;97313.28;;;14.06;53.73
72336;BME280;65062;48.446;8.834;2023-04-07T10:20:05;97315.78;;;13.44;54.71
72336;BME280;65062;48.446;8.834;2023-04-07T10:23:14;97313.97;;;13.51;54.33
72336;BME280;65062;48.446;8.834;2023-04-07T10:26:17;97313.66;;;13.15;53.98
72336;BME280;65062;48.446;8.834;2023-04-07T10:29:19;97312.47;;;12.79;54.66
72336;BME280;65062;48.446;8.834;2023-04-07T10:32:21;97317.50;;;12.34;55.52
72336;BME280;65062;48.446;8.834;2023-04-07T10:35:22;97309.00;;;12.13;57.34
72336;BME280;65062;48.446;8.834;2023-04-07T10:38:22;97307.63;;;12.23;55.42
72336;BME280;65062;48.446;8.834;2023-04-07T10:54:20;97319.03;;;13.40;50.76
72336;BME280;65062;48.446;8.834;2023-04-07T10:57:21;97311.13;;;13.46;52.67
72336;BME280;65062;48.446;8.834;2023-04-07T11:00:23;97317.78;;;13.49;50.02
72336;BME280;65062;48.446;8.834;2023-04-07T11:03:24;97315.66;;;13.26;50.44
72336;BME280;65062;48.446;8.834;2023-04-07T11:06:25;97318.34;;;13.64;49.98
72336;BME280;65062;48.446;8.834;2023-04-07T11:09:26;97317.09;;;13.73;49.16
72336;BME280;65062;48.446;8.834;2023-04-07T11:12:26;97324.53;;;14.20;50.58
72336;BME280;65062;48.446;8.834;2023-04-07T11:15:27;97305.44;;;14.62;48.17
72336;BME280;65062;48.446;8.834;2023-04-07T11:18:27;97323.94;;;14.24;45.80
72336;BME280;65062;48.446;8.834;2023-04-07T11:21:28;97322.53;;;14.15;46.53
72336;BME280;65062;48.446;8.834;2023-04-07T11:24:35;97315.53;;;14.40;45.98
72336;BME280;65062;48.446;8.834;2023-04-07T11:27:39;97306.03;;;14.39;43.89
72336;BME280;65062;48.446;8.834;2023-04-07T11:30:51;97314.34;;;14.36;46.52
72336;BME280;65062;48.446;8.834;2023-04-07T11:33:59;97309.28;;;14.66;46.55
72336;BME280;65062;48.446;8.834;2023-04-07T11:37:20;97315.16;;;14.86;45.27
72336;BME280;65062;48.446;8.834;2023-04-07T11:40:31;97308.94;;;14.99;41.57
72336;BME280;65062;48.446;8.834;2023-04-07T11:43:36;97315.34;;;16.70;41.76
72336;BME280;65062;48.446;8.834;2023-04-07T11:46:54;97322.25;;;18.03;38.66
72336;BME280;65062;48.446;8.834;2023-04-07T11:49:55;97317.34;;;18.67;33.37
72336;BME280;65062;48.446;8.834;2023-04-07T11:52:56;97319.56;;;18.14;33.64
72336;BME280;65062;48.446;8.834;2023-04-07T11:56:04;97317.09;;;18.86;34.24
72336;BME280;65062;48.446;8.834;2023-04-07T11:59:05;97318.50;;;20.29;34.22
72336;BME280;65062;48.446;8.834;2023-04-07T12:02:06;97319.19;;;21.04;30.00
72336;BME280;65062;48.446;8.834;2023-04-07T12:05:07;97319.75;;;20.48;29.31
72336;BME280;65062;48.446;8.834;2023-04-07T12:08:09;97324.47;;;21.82;29.17
72336;BME280;65062;48.446;8.834;2023-04-07T12:11:10;97320.88;;;22.38;26.75
72336;BME280;65062;48.446;8.834;2023-04-07T12:14:10;97321.75;;;22.99;25.19
72336;BME280;65062;48.446;8.834;2023-04-07T12:17:19;97317.13;;;20.53;27.18
72336;BME280;65062;48.446;8.834;2023-04-07T12:20:20;97330.19;;;20.28;31.32
72336;BME280;65062;48.446;8.834;2023-04-07T12:23:21;97322.28;;;18.47;32.11
72336;BME280;65062;48.446;8.834;2023-04-07T12:26:22;97320.66;;;16.93;36.93
72336;BME280;65062;48.446;8.834;2023-04-07T12:29:24;97330.44;;;17.16;35.83
72336;BME280;65062;48.446;8.834;2023-04-07T12:32:24;97329.50;;;17.33;35.95
72336;BME280;65062;48.446;8.834;2023-04-07T12:35:25;97330.66;;;21.10;32.60
72336;BME280;65062;48.446;8.834;2023-04-07T12:38:26;97320.91;;;23.44;29.92
72336;BME280;65062;48.446;8.834;2023-04-07T12:41:26;97331.09;;;23.32;27.68
72336;BME280;65062;48.446;8.834;2023-04-07T12:44:26;97329.94;;;23.63;28.38
72336;BME280;65062;48.446;8.834;2023-04-07T12:47:27;97329.81;;;21.97;30.27
72336;BME280;65062;48.446;8.834;2023-04-07T12:50:28;97327.19;;;19.38;34.34
72336;BME280;65062;48.446;8.834;2023-04-07T12:53:29;97338.66;;;17.77;38.02
72336;BME280;65062;48.446;8.834;2023-04-07T12:56:30;97336.22;;;16.48;39.72
72336;BME280;65062;48.446;8.834;2023-04-07T12:59:30;97338.19;;;15.58;40.99
72336;BME280;65062;48.446;8.834;2023-04-07T13:02:31;97342.25;;;14.68;43.70
72336;BME280;65062;48.446;8.834;2023-04-07T13:05:31;97343.38;;;14.54;46.62
72336;BME280;65062;48.446;8.834;2023-04-07T13:08:33;97362.81;;;13.78;47.67
72336;BME280;65062;48.446;8.834;2023-04-07T13:11:34;97362.94;;;13.39;52.19
72336;BME280;65062;48.446;8.834;2023-04-07T13:14:35;97363.97;;;12.47;52.31
72336;BME280;65062;48.446;8.834;2023-04-07T13:17:36;97374.72;;;11.92;54.44
72336;BME280;65062;48.446;8.834;2023-04-07T13:20:37;97369.09;;;11.61;57.25
72336;BME280;65062;48.446;8.834;2023-04-07T13:23:37;97378.69;;;11.47;58.00
72336;BME280;65062;48.446;8.834;2023-04-07T13:26:38;97375.97;;;10.73;57.32
72336;BME280;65062;48.446;8.834;2023-04-07T13:29:38;97382.56;;;10.41;60.42
72336;BME280;65062;48.446;8.834;2023-04-07T13:32:39;97384.63;;;10.31;62.25
72336;BME280;65062;48.446;8.834;2023-04-07T13:35:39;97388.50;;;9.99;64.41
72336;BME280;65062;48.446;8.834;2023-04-07T13:38:39;97398.69;;;9.94;66.77
72336;BME280;65062;48.446;8.834;2023-04-07T13:41:41;97398.66;;;9.73;68.00
72336;BME280;65062;48.446;8.834;2023-04-07T13:44:41;97395.44;;;9.42;71.39
72336;BME280;65062;48.446;8.834;2023-04-07T13:47:44;97398.00;;;8.99;74.25
72336;BME280;65062;48.446;8.834;2023-04-07T13:50:45;97405.78;;;8.47;75.69
72336;BME280;65062;48.446;8.834;2023-04-07T13:53:45;97397.53;;;8.35;76.91
72336;BME280;65062;48.446;8.834;2023-04-07T13:56:46;97392.16;;;8.37;76.67
72336;BME280;65062;48.446;8.834;2023-04-07T13:59:50;97392.31;;;8.58;78.29
72336;BME280;65062;48.446;8.834;2023-04-07T14:02:51;97396.28;;;8.91;78.00
72336;BME280;65062;48.446;8.834;2023-04-07T14:05:51;97401.41;;;8.85;78.16
72336;BME280;65062;48.446;8.834;2023-04-07T14:08:52;97393.94;;;8.96;77.13
72336;BME280;65062;48.446;8.834;2023-04-07T14:11:52;97395.69;;;9.18;74.70
72336;BME280;65062;48.446;8.834;2023-04-07T14:14:52;97393.88;;;9.19;73.72
72336;BME280;65062;48.446;8.834;2023-04-07T14:17:53;97393.53;;;9.36;72.55
72336;BME280;65062;48.446;8.834;2023-04-07T14:20:54;97394.34;;;9.66;71.89
72336;BME280;65062;48.446;8.834;2023-04-07T14:23:54;97392.53;;;9.81;71.04
72336;BME280;65062;48.446;8.834;2023-04-07T14:26:55;97390.81;;;10.23;69.02
72336;BME280;65062;48.446;8.834;2023-04-07T14:29:55;97395.44;;;10.42;67.24
72336;BME280;65062;48.446;8.834;2023-04-07T14:32:57;97390.06;;;10.72;67.74
72336;BME280;65062;48.446;8.834;2023-04-07T14:35:57;97392.66;;;10.93;66.27
72336;BME280;65062;48.446;8.834;2023-04-07T14:38:57;97384.41;;;10.96;66.72
72336;BME280;65062;48.446;8.834;2023-04-07T14:41:58;97390.44;;;11.24;63.05
72336;BME280;65062;48.446;8.834;2023-04-07T14:44:59;97373.56;;;11.60;64.93
72336;BME280;65062;48.446;8.834;2023-04-07T14:48:00;97383.44;;;12.05;64.53
72336;BME280;65062;48.446;8.834;2023-04-07T14:51:01;97377.50;;;12.70;61.83
72336;BME280;65062;48.446;8.834;2023-04-07T14:54:02;97384.59;;;12.63;63.59
72336;BME280;65062;48.446;8.834;2023-04-07T14:57:03;97384.19;;;13.25;62.63
72336;BME280;65062;48.446;8.834;2023-04-07T15:00:04;97387.00;;;13.30;60.43
72336;BME280;65062;48.446;8.834;2023-04-07T15:03:08;97390.84;;;12.82;57.38
72336;BME280;65062;48.446;8.834;2023-04-07T15:06:09;97387.84;;;13.17;59.02
72336;BME280;65062;48.446;8.834;2023-04-07T15:09:09;97388.78;;;13.49;58.11
72336;BME280;65062;48.446;8.834;2023-04-07T15:12:10;97394.44;;;13.46;59.44
72336;BME280;65062;48.446;8.834;2023-04-07T15:15:10;97397.91;;;12.75;60.58
72336;BME280;65062;48.446;8.834;2023-04-07T15:18:10;97410.50;;;12.12;61.09
72336;BME280;65062;48.446;8.834;2023-04-07T15:21:12;97415.16;;;11.70;63.10
72336;BME280;65062;48.446;8.834;2023-04-07T15:24:13;97416.34;;;11.06;69.45
72336;BME280;65062;48.446;8.834;2023-04-07T15:27:14;97431.56;;;10.53;70.04
72336;BME280;65062;48.446;8.834;2023-04-07T15:30:15;97421.00;;;10.62;69.31
72336;BME280;65062;48.446;8.834;2023-04-07T15:33:15;97421.09;;;10.75;66.96
72336;BME280;65062;48.446;8.834;2023-04-07T15:36:15;97431.28;;;11.12;62.74
72336;BME280;65062;48.446;8.834;2023-04-07T15:39:16;97424.53;;;12.52;56.27
72336;BME280;65062;48.446;8.834;2023-04-07T15:42:16;97426.78;;;12.81;55.61
72336;BME280;65062;48.446;8.834;2023-04-07T15:45:16;97427.88;;;11.73;60.20
72336;BME280;65062;48.446;8.834;2023-04-07T15:48:17;97434.34;;;10.94;60.81
72336;BME280;65062;48.446;8.834;2023-04-07T15:51:17;97439.31;;;10.62;64.25
72336;BME280;65062;48.446;8.834;2023-04-07T15:54:17;97440.03;;;10.34;65.71
72336;BME280;65062;48.446;8.834;2023-04-07T15:57:18;97445.75;;;10.23;66.53
72336;BME280;65062;48.446;8.834;2023-04-07T16:00:20;97448.88;;;10.04;65.19
72336;BME280;65062;48.446;8.834;2023-04-07T16:03:21;97445.66;;;10.02;65.58
72336;BME280;65062;48.446;8.834;2023-04-07T16:06:22;97450.06;;;10.52;63.35
72336;BME280;65062;48.446;8.834;2023-04-07T16:09:22;97450.75;;;10.60;61.75
72336;BME280;65062;48.446;8.834;2023-04-07T16:12:22;97451.34;;;10.41;62.35
72336;BME280;65062;48.446;8.834;2023-04-07T16:15:23;97462.50;;;10.29;65.49
72336;BME280;65062;48.446;8.834;2023-04-07T16:18:23;97462.16;;;10.03;65.88
72336;BME280;65062;48.446;8.834;2023-04-07T16:21:24;97460.38;;;9.74;65.96
72336;BME280;65062;48.446;8.834;2023-04-07T16:24:26;97464.97;;;9.58;67.70
72336;BME280;65062;48.446;8.834;2023-04-07T16:27:27;97467.56;;;9.43;67.60
72336;BME280;65062;48.446;8.834;2023-04-07T16:30:27;97469.88;;;9.38;68.83